MVD6408 USRO-URMM
Flight info
| Callsign | MVD6408 |
|---|---|
| Flight time | 4h 7m |
| Altitude | 35000 |
| Route | N0460F350 DINOL T797 MGR L992 AKB Z210 KODUM N996 AKT N37 IPLED DCT GOTIK DCT MEMZA A962 OKARU |
| Aircraft | T204/M-Q/L |
Departure
| Time | 2026-04-16 06:02 |
|---|---|
| Airport | Noyabrsk Airport (USRO) |
Arrival
| Time | 2026-04-16 10:10 |
|---|---|
| Airport | Mineralnye Vody Airport (URMM) |
| Time | Latitude | Longitude | Altitude | Speed | Heading |
|---|---|---|---|---|---|
| 2026-04-16 05:52 | 63.18215 | 75.27268 | 463 ft | 0 kts | 112° |
| 2026-04-16 05:57 | 63.18210 | 75.27319 | 463 ft | 6 kts | 83° |
| 2026-04-16 05:57 | 63.18255 | 75.27361 | 463 ft | 8 kts | 315° |
| 2026-04-16 05:57 | 63.18283 | 75.27197 | 463 ft | 12 kts | 295° |
| 2026-04-16 05:57 | 63.18321 | 75.27018 | 463 ft | 11 kts | 295° |
| 2026-04-16 05:58 | 63.18374 | 75.26894 | 463 ft | 10 kts | 349° |
| 2026-04-16 05:58 | 63.18448 | 75.26955 | 463 ft | 17 kts | 25° |
| 2026-04-16 05:58 | 63.18603 | 75.27115 | 464 ft | 28 kts | 24° |
| 2026-04-16 05:58 | 63.18774 | 75.27290 | 463 ft | 26 kts | 24° |
| 2026-04-16 05:59 | 63.18932 | 75.27452 | 464 ft | 24 kts | 25° |
| 2026-04-16 05:59 | 63.19076 | 75.27602 | 464 ft | 22 kts | 24° |
| 2026-04-16 05:59 | 63.19209 | 75.27737 | 464 ft | 19 kts | 25° |
| 2026-04-16 05:59 | 63.19328 | 75.27854 | 464 ft | 17 kts | 20° |
| 2026-04-16 06:00 | 63.19390 | 75.27943 | 464 ft | 4 kts | 104° |
| 2026-04-16 06:00 | 63.19373 | 75.27937 | 464 ft | 3 kts | 238° |
| 2026-04-16 06:00 | 63.19363 | 75.27906 | 464 ft | 1 kts | 219° |
| 2026-04-16 06:00 | 63.19355 | 75.27895 | 464 ft | 1 kts | 208° |
| 2026-04-16 06:01 | 63.19350 | 75.27889 | 464 ft | 0 kts | 208° |
| 2026-04-16 06:01 | 63.19265 | 75.27793 | 464 ft | 46 kts | 206° |
| 2026-04-16 06:01 | 63.18681 | 75.27197 | 464 ft | 136 kts | 205° |
| 2026-04-16 06:01 | 63.17632 | 75.26080 | 787 ft | 187 kts | 209° |
| 2026-04-16 06:02 | 63.15512 | 75.23639 | 3167 ft | 170 kts | 211° |
| 2026-04-16 06:02 | 63.14384 | 75.22481 | 3553 ft | 186 kts | 206° |
| 2026-04-16 06:02 | 63.13171 | 75.21308 | 3952 ft | 201 kts | 206° |
| 2026-04-16 06:03 | 63.11825 | 75.19957 | 4234 ft | 225 kts | 210° |
| 2026-04-16 06:03 | 63.10504 | 75.17851 | 4568 ft | 250 kts | 222° |
| 2026-04-16 06:03 | 63.09103 | 75.15350 | 5323 ft | 266 kts | 222° |
| 2026-04-16 06:03 | 63.07690 | 75.12811 | 6381 ft | 269 kts | 223° |
| 2026-04-16 06:04 | 63.06242 | 75.10203 | 7367 ft | 274 kts | 223° |
| 2026-04-16 06:04 | 63.04763 | 75.07549 | 8330 ft | 278 kts | 223° |
| 2026-04-16 06:04 | 63.03262 | 75.04863 | 9248 ft | 283 kts | 223° |
| 2026-04-16 06:04 | 63.01740 | 75.02148 | 10148 ft | 288 kts | 223° |
| 2026-04-16 06:05 | 63.00186 | 74.99375 | 11016 ft | 292 kts | 223° |
| 2026-04-16 06:05 | 62.98614 | 74.96571 | 11856 ft | 297 kts | 224° |
| 2026-04-16 06:05 | 62.97014 | 74.93716 | 12663 ft | 302 kts | 224° |
| 2026-04-16 06:05 | 62.95347 | 74.90730 | 13170 ft | 318 kts | 224° |
| 2026-04-16 06:06 | 62.93597 | 74.87593 | 13547 ft | 336 kts | 224° |
| 2026-04-16 06:06 | 62.91748 | 74.84290 | 13990 ft | 352 kts | 223° |
| 2026-04-16 06:06 | 62.89834 | 74.80878 | 14736 ft | 357 kts | 224° |
| 2026-04-16 06:06 | 62.87918 | 74.77483 | 15436 ft | 361 kts | 224° |
| 2026-04-16 06:07 | 62.85963 | 74.74016 | 16105 ft | 367 kts | 224° |
| 2026-04-16 06:07 | 62.83975 | 74.70488 | 16773 ft | 371 kts | 224° |
| 2026-04-16 06:07 | 62.81948 | 74.66893 | 17471 ft | 375 kts | 223° |
| 2026-04-16 06:07 | 62.79880 | 74.63529 | 18128 ft | 380 kts | 220° |
| 2026-04-16 06:08 | 62.77741 | 74.60115 | 18748 ft | 384 kts | 221° |
| 2026-04-16 06:08 | 62.75578 | 74.56682 | 19348 ft | 388 kts | 220° |
| 2026-04-16 06:08 | 62.73389 | 74.53205 | 19950 ft | 392 kts | 221° |
| 2026-04-16 06:08 | 62.71188 | 74.49715 | 20523 ft | 396 kts | 221° |
| 2026-04-16 06:09 | 62.68976 | 74.46203 | 21022 ft | 400 kts | 221° |
| 2026-04-16 06:09 | 62.66718 | 74.42605 | 21545 ft | 404 kts | 221° |
| 2026-04-16 06:09 | 62.64465 | 74.39014 | 22051 ft | 408 kts | 222° |
| 2026-04-16 06:09 | 62.62165 | 74.35345 | 22566 ft | 411 kts | 222° |
| 2026-04-16 06:10 | 62.59872 | 74.31675 | 23002 ft | 415 kts | 221° |
| 2026-04-16 06:10 | 62.57549 | 74.27962 | 23474 ft | 418 kts | 221° |
| 2026-04-16 06:10 | 62.55197 | 74.24204 | 23912 ft | 422 kts | 221° |
| 2026-04-16 06:10 | 62.52827 | 74.20411 | 24324 ft | 426 kts | 222° |
| 2026-04-16 06:11 | 62.50448 | 74.16663 | 24767 ft | 429 kts | 221° |
| 2026-04-16 06:11 | 62.48032 | 74.12882 | 25181 ft | 432 kts | 221° |
| 2026-04-16 06:11 | 62.45587 | 74.09074 | 25558 ft | 436 kts | 221° |
| 2026-04-16 06:11 | 62.43139 | 74.05257 | 25963 ft | 438 kts | 221° |
| 2026-04-16 06:12 | 62.40663 | 74.01399 | 26341 ft | 440 kts | 221° |
| 2026-04-16 06:12 | 62.38206 | 73.97573 | 26695 ft | 443 kts | 221° |
| 2026-04-16 06:12 | 62.35717 | 73.93707 | 27150 ft | 444 kts | 221° |
| 2026-04-16 06:12 | 62.33203 | 73.89799 | 27376 ft | 450 kts | 222° |
| 2026-04-16 06:13 | 62.30654 | 73.85833 | 27671 ft | 453 kts | 221° |
| 2026-04-16 06:13 | 62.28137 | 73.81910 | 27940 ft | 457 kts | 222° |
| 2026-04-16 06:13 | 62.25561 | 73.77903 | 28259 ft | 458 kts | 222° |
| 2026-04-16 06:13 | 62.22979 | 73.73879 | 28565 ft | 460 kts | 222° |
| 2026-04-16 06:14 | 62.20428 | 73.69900 | 28867 ft | 462 kts | 222° |
| 2026-04-16 06:14 | 62.17817 | 73.65831 | 29123 ft | 464 kts | 222° |
| 2026-04-16 06:14 | 62.15207 | 73.61759 | 29419 ft | 465 kts | 222° |
| 2026-04-16 06:14 | 62.12640 | 73.57709 | 29633 ft | 468 kts | 223° |
| 2026-04-16 06:15 | 62.10030 | 73.53558 | 29911 ft | 469 kts | 223° |
| 2026-04-16 06:15 | 62.07415 | 73.49403 | 30144 ft | 471 kts | 223° |
| 2026-04-16 06:15 | 62.04776 | 73.45222 | 30351 ft | 474 kts | 223° |
| 2026-04-16 06:15 | 62.02153 | 73.41066 | 30569 ft | 476 kts | 223° |
| 2026-04-16 06:16 | 61.99497 | 73.36847 | 30670 ft | 482 kts | 223° |
| 2026-04-16 06:16 | 61.96802 | 73.32571 | 30713 ft | 488 kts | 221° |
| 2026-04-16 06:16 | 61.94061 | 73.28310 | 31067 ft | 486 kts | 221° |
| 2026-04-16 06:16 | 61.91358 | 73.24184 | 31363 ft | 483 kts | 220° |
| 2026-04-16 06:17 | 61.88618 | 73.20029 | 31627 ft | 481 kts | 220° |
| 2026-04-16 06:17 | 61.85941 | 73.15978 | 31820 ft | 480 kts | 220° |
| 2026-04-16 06:17 | 61.83209 | 73.11857 | 31957 ft | 481 kts | 220° |
| 2026-04-16 06:17 | 61.80512 | 73.07794 | 32145 ft | 480 kts | 220° |
| 2026-04-16 06:18 | 61.77797 | 73.03691 | 32349 ft | 478 kts | 220° |
| 2026-04-16 06:18 | 61.75121 | 72.99660 | 32515 ft | 477 kts | 220° |
| 2026-04-16 06:18 | 61.72424 | 72.95594 | 32682 ft | 476 kts | 220° |
| 2026-04-16 06:18 | 61.69758 | 72.91571 | 32817 ft | 475 kts | 220° |
| 2026-04-16 06:19 | 61.67107 | 72.87573 | 32940 ft | 475 kts | 220° |
| 2026-04-16 06:19 | 61.64418 | 72.83513 | 33046 ft | 475 kts | 220° |
| 2026-04-16 06:19 | 61.61762 | 72.79498 | 33181 ft | 475 kts | 220° |
| 2026-04-16 06:19 | 61.59070 | 72.75422 | 33309 ft | 475 kts | 221° |
| 2026-04-16 06:20 | 61.56422 | 72.71413 | 33427 ft | 475 kts | 221° |
| 2026-04-16 06:20 | 61.53774 | 72.67413 | 33579 ft | 473 kts | 221° |
| 2026-04-16 06:20 | 61.51106 | 72.63369 | 33684 ft | 473 kts | 221° |
| 2026-04-16 06:20 | 61.48444 | 72.59343 | 33812 ft | 473 kts | 221° |
| 2026-04-16 06:21 | 61.45816 | 72.55355 | 33948 ft | 473 kts | 221° |
| 2026-04-16 06:21 | 61.43168 | 72.51342 | 34098 ft | 472 kts | 221° |
| 2026-04-16 06:21 | 61.40511 | 72.47315 | 34255 ft | 475 kts | 221° |
| 2026-04-16 06:21 | 61.37861 | 72.43291 | 34277 ft | 476 kts | 221° |
| 2026-04-16 06:22 | 61.32555 | 72.35248 | 34267 ft | 470 kts | 221° |
| 2026-04-16 06:22 | 61.27280 | 72.27219 | 34287 ft | 470 kts | 220° |
| 2026-04-16 06:23 | 61.22041 | 72.19250 | 34291 ft | 470 kts | 220° |
| 2026-04-16 06:23 | 61.16771 | 72.11221 | 34287 ft | 470 kts | 221° |
| 2026-04-16 06:24 | 61.11550 | 72.03273 | 34290 ft | 470 kts | 220° |
| 2026-04-16 06:24 | 61.06227 | 71.95504 | 34286 ft | 471 kts | 219° |
| 2026-04-16 06:25 | 61.00892 | 71.87739 | 34278 ft | 471 kts | 220° |
| 2026-04-16 06:25 | 60.95806 | 71.79388 | 34280 ft | 468 kts | 225° |
| 2026-04-16 06:26 | 60.90864 | 71.70887 | 34276 ft | 468 kts | 225° |
| 2026-04-16 06:26 | 60.85862 | 71.62337 | 34253 ft | 468 kts | 225° |
| 2026-04-16 06:27 | 60.80896 | 71.53902 | 34253 ft | 469 kts | 224° |
| 2026-04-16 06:27 | 60.75794 | 71.45549 | 34252 ft | 471 kts | 224° |
| 2026-04-16 06:28 | 60.70690 | 71.37344 | 34248 ft | 471 kts | 224° |
| 2026-04-16 06:28 | 60.65560 | 71.29125 | 34253 ft | 472 kts | 223° |
| 2026-04-16 06:29 | 60.60405 | 71.20878 | 34250 ft | 472 kts | 223° |
| 2026-04-16 06:29 | 60.55275 | 71.12659 | 34241 ft | 471 kts | 223° |
| 2026-04-16 06:30 | 60.50152 | 71.04436 | 34242 ft | 471 kts | 223° |
| 2026-04-16 06:30 | 60.45056 | 70.96250 | 34246 ft | 472 kts | 223° |
| 2026-04-16 06:31 | 60.39937 | 70.88029 | 34240 ft | 473 kts | 224° |
| 2026-04-16 06:31 | 60.34798 | 70.79753 | 34246 ft | 473 kts | 224° |
| 2026-04-16 06:32 | 60.29682 | 70.71519 | 34243 ft | 473 kts | 224° |
| 2026-04-16 06:32 | 60.24568 | 70.63267 | 34238 ft | 473 kts | 224° |
| 2026-04-16 06:33 | 60.19497 | 70.55083 | 34237 ft | 472 kts | 224° |
| 2026-04-16 06:33 | 60.14395 | 70.46841 | 34239 ft | 473 kts | 224° |
| 2026-04-16 06:34 | 60.09304 | 70.38606 | 34239 ft | 472 kts | 224° |
| 2026-04-16 06:34 | 60.04206 | 70.30351 | 34245 ft | 473 kts | 224° |
| 2026-04-16 06:35 | 59.99135 | 70.22128 | 34241 ft | 473 kts | 224° |
| 2026-04-16 06:35 | 59.94053 | 70.13894 | 34240 ft | 473 kts | 224° |
| 2026-04-16 06:36 | 59.88947 | 70.05608 | 34233 ft | 473 kts | 224° |
| 2026-04-16 06:36 | 59.83888 | 69.97375 | 34224 ft | 473 kts | 224° |
| 2026-04-16 06:37 | 59.78813 | 69.89114 | 34229 ft | 473 kts | 224° |
| 2026-04-16 06:37 | 59.73782 | 69.80926 | 34228 ft | 473 kts | 225° |
| 2026-04-16 06:38 | 59.68716 | 69.72666 | 34231 ft | 473 kts | 225° |
| 2026-04-16 06:38 | 59.63653 | 69.64397 | 34236 ft | 473 kts | 225° |
| 2026-04-16 06:39 | 59.58621 | 69.56177 | 34236 ft | 473 kts | 225° |
| 2026-04-16 06:39 | 59.53519 | 69.48043 | 34232 ft | 474 kts | 223° |
| 2026-04-16 06:40 | 59.48316 | 69.40194 | 34235 ft | 475 kts | 223° |
| 2026-04-16 06:40 | 59.43089 | 69.32304 | 34235 ft | 476 kts | 222° |
| 2026-04-16 06:41 | 59.37872 | 69.24418 | 34231 ft | 476 kts | 223° |
| 2026-04-16 06:41 | 59.32656 | 69.16532 | 34232 ft | 475 kts | 223° |
| 2026-04-16 06:42 | 59.27445 | 69.08646 | 34233 ft | 476 kts | 223° |
| 2026-04-16 06:42 | 59.22214 | 69.00720 | 34237 ft | 477 kts | 223° |
| 2026-04-16 06:43 | 59.17031 | 68.92857 | 34235 ft | 475 kts | 223° |
| 2026-04-16 06:43 | 59.12114 | 68.84390 | 34245 ft | 470 kts | 230° |
| 2026-04-16 06:44 | 59.07422 | 68.75575 | 34243 ft | 472 kts | 229° |
| 2026-04-16 06:44 | 59.02662 | 68.66821 | 34272 ft | 475 kts | 229° |
| 2026-04-16 06:45 | 59.00277 | 68.62460 | 34391 ft | 476 kts | 229° |
| 2026-04-16 06:45 | 58.97863 | 68.58055 | 34551 ft | 476 kts | 229° |
| 2026-04-16 06:45 | 58.95484 | 68.53717 | 34792 ft | 474 kts | 229° |
| 2026-04-16 06:45 | 58.93101 | 68.49362 | 34988 ft | 472 kts | 229° |
| 2026-04-16 06:46 | 58.90726 | 68.45029 | 35235 ft | 469 kts | 229° |
| 2026-04-16 06:46 | 58.88369 | 68.40722 | 35409 ft | 468 kts | 229° |
| 2026-04-16 06:46 | 58.85998 | 68.36385 | 35522 ft | 469 kts | 229° |
| 2026-04-16 06:46 | 58.83656 | 68.32098 | 35594 ft | 470 kts | 229° |
| 2026-04-16 06:47 | 58.81277 | 68.27745 | 35736 ft | 470 kts | 229° |
| 2026-04-16 06:47 | 58.78930 | 68.23442 | 35826 ft | 471 kts | 229° |
| 2026-04-16 06:47 | 58.76573 | 68.19120 | 35982 ft | 469 kts | 229° |
| 2026-04-16 06:47 | 58.74234 | 68.14832 | 36160 ft | 467 kts | 229° |
| 2026-04-16 06:48 | 58.69554 | 68.06233 | 36220 ft | 467 kts | 229° |
| 2026-04-16 06:48 | 58.64874 | 67.97643 | 36251 ft | 467 kts | 229° |
| 2026-04-16 06:49 | 58.60199 | 67.89051 | 36249 ft | 467 kts | 229° |
| 2026-04-16 06:49 | 58.55563 | 67.80507 | 36251 ft | 466 kts | 229° |
| 2026-04-16 06:50 | 58.50895 | 67.71886 | 36247 ft | 467 kts | 229° |
| 2026-04-16 06:50 | 58.46250 | 67.63324 | 36245 ft | 466 kts | 230° |
| 2026-04-16 06:51 | 58.41611 | 67.54732 | 36249 ft | 467 kts | 230° |
| 2026-04-16 06:51 | 58.36991 | 67.46169 | 36252 ft | 467 kts | 230° |
| 2026-04-16 06:52 | 58.32345 | 67.37568 | 36250 ft | 467 kts | 230° |
| 2026-04-16 06:52 | 58.27703 | 67.28949 | 36258 ft | 468 kts | 229° |
| 2026-04-16 06:53 | 58.23083 | 67.20357 | 36254 ft | 468 kts | 230° |
| 2026-04-16 06:53 | 58.18445 | 67.11729 | 36257 ft | 467 kts | 230° |
| 2026-04-16 06:54 | 58.13836 | 67.03146 | 36258 ft | 467 kts | 230° |
| 2026-04-16 06:54 | 58.09252 | 66.94587 | 36256 ft | 466 kts | 230° |
| 2026-04-16 06:55 | 58.04668 | 66.86021 | 36254 ft | 468 kts | 230° |
| 2026-04-16 06:55 | 57.99903 | 66.77640 | 36261 ft | 469 kts | 228° |
| 2026-04-16 06:56 | 57.95137 | 66.69373 | 36250 ft | 470 kts | 228° |
| 2026-04-16 06:56 | 57.90330 | 66.61034 | 36265 ft | 471 kts | 228° |
| 2026-04-16 06:57 | 57.85568 | 66.52766 | 36253 ft | 470 kts | 229° |
| 2026-04-16 06:57 | 57.80804 | 66.44468 | 36260 ft | 469 kts | 229° |
| 2026-04-16 06:58 | 57.76027 | 66.36153 | 36249 ft | 469 kts | 229° |
| 2026-04-16 06:58 | 57.71286 | 66.27875 | 36258 ft | 472 kts | 228° |
| 2026-04-16 06:59 | 57.66506 | 66.19531 | 36248 ft | 470 kts | 228° |
| 2026-04-16 06:59 | 57.61809 | 66.11108 | 36237 ft | 470 kts | 230° |
| 2026-04-16 07:00 | 57.57137 | 66.02681 | 36257 ft | 472 kts | 230° |
| 2026-04-16 07:01 | 57.50106 | 65.90057 | 36263 ft | 470 kts | 230° |
| 2026-04-16 07:01 | 57.45406 | 65.81713 | 36258 ft | 469 kts | 229° |
| 2026-04-16 07:02 | 57.40680 | 65.73395 | 36262 ft | 470 kts | 229° |
| 2026-04-16 07:02 | 57.35950 | 65.65090 | 36262 ft | 471 kts | 229° |
| 2026-04-16 07:03 | 57.31234 | 65.56815 | 36268 ft | 471 kts | 229° |
| 2026-04-16 07:03 | 57.26504 | 65.48502 | 36270 ft | 470 kts | 229° |
| 2026-04-16 07:04 | 57.21795 | 65.40229 | 36261 ft | 470 kts | 230° |
| 2026-04-16 07:04 | 57.17116 | 65.31810 | 36290 ft | 468 kts | 235° |
| 2026-04-16 07:05 | 57.13369 | 65.22255 | 36274 ft | 463 kts | 242° |
| 2026-04-16 07:05 | 57.09718 | 65.12512 | 36286 ft | 462 kts | 242° |
| 2026-04-16 07:06 | 57.06078 | 65.02875 | 36263 ft | 462 kts | 242° |
| 2026-04-16 07:06 | 57.02451 | 64.93256 | 36267 ft | 462 kts | 242° |
| 2026-04-16 07:07 | 56.98808 | 64.83589 | 36264 ft | 462 kts | 242° |
| 2026-04-16 07:07 | 56.95181 | 64.73926 | 36267 ft | 461 kts | 242° |
| 2026-04-16 07:08 | 56.91561 | 64.64310 | 36263 ft | 464 kts | 240° |
| 2026-04-16 07:08 | 56.87041 | 64.55718 | 36267 ft | 472 kts | 230° |
| 2026-04-16 07:09 | 56.82287 | 64.47490 | 36254 ft | 474 kts | 229° |
| 2026-04-16 07:09 | 56.77506 | 64.39253 | 36267 ft | 473 kts | 229° |
| 2026-04-16 07:10 | 56.72774 | 64.31059 | 36263 ft | 474 kts | 229° |
| 2026-04-16 07:10 | 56.68020 | 64.22829 | 36279 ft | 473 kts | 229° |
| 2026-04-16 07:11 | 56.63251 | 64.14579 | 36273 ft | 473 kts | 229° |
| 2026-04-16 07:11 | 56.58519 | 64.06362 | 36268 ft | 474 kts | 229° |
| 2026-04-16 07:12 | 56.53796 | 63.98153 | 36272 ft | 472 kts | 229° |
| 2026-04-16 07:12 | 56.49073 | 63.89929 | 36274 ft | 473 kts | 229° |
| 2026-04-16 07:13 | 56.44362 | 63.81730 | 36263 ft | 474 kts | 230° |
| 2026-04-16 07:13 | 56.39626 | 63.73462 | 36281 ft | 474 kts | 230° |
| 2026-04-16 07:14 | 56.34919 | 63.65251 | 36282 ft | 472 kts | 230° |
| 2026-04-16 07:14 | 56.30237 | 63.57064 | 36270 ft | 472 kts | 230° |
| 2026-04-16 07:15 | 56.25706 | 63.48659 | 36261 ft | 466 kts | 236° |
| 2026-04-16 07:15 | 56.21562 | 63.39770 | 36276 ft | 468 kts | 236° |
| 2026-04-16 07:16 | 56.17357 | 63.30881 | 36276 ft | 469 kts | 235° |
| 2026-04-16 07:16 | 56.13119 | 63.22014 | 36280 ft | 470 kts | 235° |
| 2026-04-16 07:17 | 56.08905 | 63.13187 | 36280 ft | 470 kts | 235° |
| 2026-04-16 07:17 | 56.04669 | 63.04314 | 36275 ft | 470 kts | 235° |
| 2026-04-16 07:18 | 56.00442 | 62.95443 | 36270 ft | 470 kts | 235° |
| 2026-04-16 07:18 | 55.96243 | 62.86608 | 36270 ft | 469 kts | 236° |
| 2026-04-16 07:19 | 55.92052 | 62.77777 | 36266 ft | 469 kts | 236° |
| 2026-04-16 07:19 | 55.87868 | 62.68958 | 36262 ft | 468 kts | 236° |
| 2026-04-16 07:20 | 55.83717 | 62.60194 | 36265 ft | 467 kts | 236° |
| 2026-04-16 07:20 | 55.79560 | 62.51392 | 36272 ft | 467 kts | 236° |
| 2026-04-16 07:21 | 55.75403 | 62.42594 | 36282 ft | 465 kts | 236° |
| 2026-04-16 07:21 | 55.71239 | 62.33814 | 36276 ft | 466 kts | 234° |
| 2026-04-16 07:22 | 55.67023 | 62.25188 | 36275 ft | 467 kts | 234° |
| 2026-04-16 07:22 | 55.62791 | 62.16547 | 36281 ft | 466 kts | 234° |
| 2026-04-16 07:23 | 55.58579 | 62.07910 | 36281 ft | 465 kts | 234° |
| 2026-04-16 07:23 | 55.54340 | 61.99280 | 36276 ft | 464 kts | 234° |
| 2026-04-16 07:24 | 55.50114 | 61.90765 | 36277 ft | 465 kts | 234° |
| 2026-04-16 07:24 | 55.45877 | 61.82242 | 36278 ft | 465 kts | 234° |
| 2026-04-16 07:25 | 55.41637 | 61.73685 | 36279 ft | 464 kts | 234° |
| 2026-04-16 07:25 | 55.37401 | 61.65142 | 36283 ft | 464 kts | 234° |
| 2026-04-16 07:26 | 55.33178 | 61.56698 | 36067 ft | 462 kts | 234° |
| 2026-04-16 07:26 | 55.31056 | 61.52473 | 36262 ft | 462 kts | 234° |
| 2026-04-16 07:26 | 55.28846 | 61.48438 | 36259 ft | 469 kts | 229° |
| 2026-04-16 07:27 | 55.24133 | 61.40565 | 36286 ft | 469 kts | 229° |
| 2026-04-16 07:27 | 55.19450 | 61.32725 | 36278 ft | 467 kts | 228° |
| 2026-04-16 07:28 | 55.14776 | 61.24857 | 36287 ft | 467 kts | 229° |
| 2026-04-16 07:28 | 55.10124 | 61.17010 | 36276 ft | 467 kts | 229° |
| 2026-04-16 07:29 | 55.05468 | 61.09152 | 36282 ft | 467 kts | 229° |
| 2026-04-16 07:29 | 55.00744 | 61.01443 | 36281 ft | 468 kts | 227° |
| 2026-04-16 07:30 | 54.96001 | 60.93768 | 36285 ft | 467 kts | 227° |
| 2026-04-16 07:30 | 54.91295 | 60.86136 | 36277 ft | 466 kts | 228° |
| 2026-04-16 07:31 | 54.86568 | 60.78466 | 36266 ft | 464 kts | 227° |
| 2026-04-16 07:31 | 54.81856 | 60.70841 | 36266 ft | 465 kts | 228° |
| 2026-04-16 07:32 | 54.77167 | 60.63256 | 36269 ft | 464 kts | 228° |
| 2026-04-16 07:32 | 54.72472 | 60.55659 | 36259 ft | 464 kts | 228° |
| 2026-04-16 07:33 | 54.67747 | 60.48123 | 36255 ft | 464 kts | 227° |
| 2026-04-16 07:33 | 54.62995 | 60.40596 | 36254 ft | 465 kts | 227° |
| 2026-04-16 07:34 | 54.58237 | 60.33065 | 36249 ft | 464 kts | 226° |
| 2026-04-16 07:34 | 54.53527 | 60.25606 | 36247 ft | 465 kts | 226° |
| 2026-04-16 07:35 | 54.48785 | 60.18080 | 36242 ft | 463 kts | 227° |
| 2026-04-16 07:35 | 54.44080 | 60.10618 | 36242 ft | 463 kts | 227° |
| 2026-04-16 07:36 | 54.39358 | 60.03118 | 36258 ft | 462 kts | 227° |
| 2026-04-16 07:36 | 54.34403 | 59.96169 | 36256 ft | 465 kts | 221° |
| 2026-04-16 07:37 | 54.29271 | 59.89476 | 36257 ft | 465 kts | 221° |
| 2026-04-16 07:37 | 54.24169 | 59.82776 | 36252 ft | 465 kts | 221° |
| 2026-04-16 07:38 | 54.19043 | 59.76036 | 36261 ft | 464 kts | 221° |
| 2026-04-16 07:38 | 54.13957 | 59.69394 | 36258 ft | 464 kts | 221° |
| 2026-04-16 07:39 | 54.08843 | 59.62749 | 36249 ft | 463 kts | 221° |
| 2026-04-16 07:39 | 54.03753 | 59.56152 | 36255 ft | 463 kts | 221° |
| 2026-04-16 07:40 | 53.98647 | 59.49532 | 36245 ft | 462 kts | 221° |
| 2026-04-16 07:40 | 53.93528 | 59.42894 | 36249 ft | 463 kts | 221° |
| 2026-04-16 07:41 | 53.88456 | 59.36306 | 36250 ft | 462 kts | 221° |
| 2026-04-16 07:41 | 53.83300 | 59.29763 | 36243 ft | 463 kts | 220° |
| 2026-04-16 07:42 | 53.78157 | 59.23296 | 36245 ft | 463 kts | 220° |
| 2026-04-16 07:42 | 53.73029 | 59.16852 | 36251 ft | 462 kts | 220° |
| 2026-04-16 07:43 | 53.67894 | 59.10388 | 36239 ft | 462 kts | 220° |
| 2026-04-16 07:43 | 53.62748 | 59.03912 | 36242 ft | 462 kts | 220° |
| 2026-04-16 07:44 | 53.57647 | 58.97480 | 36235 ft | 462 kts | 220° |
| 2026-04-16 07:44 | 53.52520 | 58.91015 | 36238 ft | 461 kts | 220° |
| 2026-04-16 07:45 | 53.47411 | 58.84573 | 36239 ft | 461 kts | 220° |
| 2026-04-16 07:45 | 53.42288 | 58.78146 | 36245 ft | 462 kts | 217° |
| 2026-04-16 07:45 | 53.39460 | 58.75665 | 36222 ft | 466 kts | 203° |
| 2026-04-16 07:46 | 53.36398 | 58.73769 | 36272 ft | 466 kts | 201° |
| 2026-04-16 07:46 | 53.30284 | 58.70395 | 36238 ft | 467 kts | 199° |
| 2026-04-16 07:47 | 53.24079 | 58.67104 | 36230 ft | 467 kts | 199° |
| 2026-04-16 07:47 | 53.17938 | 58.63869 | 36229 ft | 467 kts | 199° |
| 2026-04-16 07:48 | 53.11762 | 58.60627 | 36233 ft | 467 kts | 199° |
| 2026-04-16 07:48 | 53.05593 | 58.57383 | 36229 ft | 467 kts | 199° |
| 2026-04-16 07:49 | 52.99432 | 58.54142 | 36228 ft | 466 kts | 199° |
| 2026-04-16 07:49 | 52.93248 | 58.50890 | 36228 ft | 466 kts | 199° |
| 2026-04-16 07:50 | 52.87106 | 58.47659 | 36209 ft | 466 kts | 199° |
| 2026-04-16 07:50 | 52.80934 | 58.44413 | 36197 ft | 465 kts | 199° |
| 2026-04-16 07:51 | 52.74823 | 58.41201 | 36196 ft | 466 kts | 199° |
| 2026-04-16 07:51 | 52.68640 | 58.37944 | 36202 ft | 466 kts | 199° |
| 2026-04-16 07:52 | 52.62504 | 58.34716 | 36201 ft | 465 kts | 198° |
| 2026-04-16 07:52 | 52.56357 | 58.31492 | 36203 ft | 465 kts | 198° |
| 2026-04-16 07:53 | 52.50203 | 58.28419 | 36206 ft | 465 kts | 198° |
| 2026-04-16 07:53 | 52.44033 | 58.25350 | 36216 ft | 465 kts | 198° |
| 2026-04-16 07:54 | 52.37842 | 58.22266 | 36205 ft | 466 kts | 198° |
| 2026-04-16 07:54 | 52.31681 | 58.19197 | 36208 ft | 465 kts | 198° |
| 2026-04-16 07:55 | 52.25512 | 58.16127 | 36203 ft | 465 kts | 198° |
| 2026-04-16 07:55 | 52.19387 | 58.13077 | 36206 ft | 464 kts | 198° |
| 2026-04-16 07:56 | 52.13211 | 58.10004 | 36209 ft | 464 kts | 198° |
| 2026-04-16 07:56 | 52.07073 | 58.06942 | 36197 ft | 464 kts | 198° |
| 2026-04-16 07:57 | 52.00919 | 58.03875 | 36189 ft | 464 kts | 198° |
| 2026-04-16 07:57 | 51.94765 | 58.00859 | 36190 ft | 465 kts | 197° |
| 2026-04-16 07:58 | 51.88562 | 57.97851 | 36181 ft | 464 kts | 197° |
| 2026-04-16 07:58 | 51.82395 | 57.94871 | 36171 ft | 464 kts | 197° |
| 2026-04-16 07:59 | 51.76268 | 57.91910 | 36172 ft | 465 kts | 197° |
| 2026-04-16 07:59 | 51.70061 | 57.88907 | 36169 ft | 465 kts | 197° |
| 2026-04-16 08:00 | 51.63903 | 57.85927 | 36168 ft | 465 kts | 197° |
| 2026-04-16 08:00 | 51.57744 | 57.82944 | 36162 ft | 464 kts | 197° |
| 2026-04-16 08:01 | 51.51581 | 57.79962 | 36156 ft | 464 kts | 197° |
| 2026-04-16 08:01 | 51.45430 | 57.76984 | 36156 ft | 464 kts | 197° |
| 2026-04-16 08:02 | 51.39249 | 57.73992 | 36148 ft | 465 kts | 197° |
| 2026-04-16 08:02 | 51.29995 | 57.69529 | 36155 ft | 464 kts | 197° |
| 2026-04-16 08:03 | 51.23814 | 57.66608 | 36157 ft | 464 kts | 197° |
| 2026-04-16 08:03 | 51.17661 | 57.63709 | 36154 ft | 465 kts | 197° |
| 2026-04-16 08:04 | 51.11472 | 57.60798 | 36148 ft | 464 kts | 197° |
| 2026-04-16 08:04 | 51.05320 | 57.57896 | 36146 ft | 465 kts | 197° |
| 2026-04-16 08:05 | 50.99127 | 57.54977 | 36145 ft | 465 kts | 197° |
| 2026-04-16 08:05 | 50.92968 | 57.52075 | 36142 ft | 464 kts | 197° |
| 2026-04-16 08:06 | 50.86764 | 57.49150 | 36122 ft | 464 kts | 197° |
| 2026-04-16 08:06 | 50.80657 | 57.46003 | 36113 ft | 464 kts | 199° |
| 2026-04-16 08:07 | 50.74559 | 57.42854 | 36112 ft | 464 kts | 199° |
| 2026-04-16 08:07 | 50.68428 | 57.39714 | 36113 ft | 464 kts | 199° |
| 2026-04-16 08:08 | 50.62297 | 57.36575 | 36101 ft | 465 kts | 198° |
| 2026-04-16 08:08 | 50.56140 | 57.33426 | 36102 ft | 465 kts | 198° |
| 2026-04-16 08:09 | 50.50024 | 57.30304 | 36089 ft | 465 kts | 198° |
| 2026-04-16 08:09 | 50.43884 | 57.27164 | 36107 ft | 465 kts | 198° |
| 2026-04-16 08:10 | 50.37756 | 57.24029 | 36114 ft | 464 kts | 198° |
| 2026-04-16 08:10 | 50.31656 | 57.20910 | 36110 ft | 464 kts | 198° |
| 2026-04-16 08:11 | 50.25683 | 57.17148 | 36096 ft | 464 kts | 212° |
| 2026-04-16 08:11 | 50.20329 | 57.11606 | 36115 ft | 465 kts | 216° |
| 2026-04-16 08:12 | 50.15044 | 57.05918 | 36117 ft | 464 kts | 216° |
| 2026-04-16 08:12 | 50.09764 | 57.00219 | 36098 ft | 463 kts | 216° |
| 2026-04-16 08:13 | 50.04465 | 56.94499 | 36107 ft | 463 kts | 216° |
| 2026-04-16 08:13 | 49.99191 | 56.88809 | 36100 ft | 463 kts | 216° |
| 2026-04-16 08:14 | 49.93915 | 56.83112 | 36103 ft | 463 kts | 216° |
| 2026-04-16 08:14 | 49.88647 | 56.77414 | 36094 ft | 463 kts | 216° |
| 2026-04-16 08:15 | 49.83384 | 56.71720 | 36089 ft | 463 kts | 216° |
| 2026-04-16 08:15 | 49.78115 | 56.66018 | 36091 ft | 463 kts | 216° |
| 2026-04-16 08:16 | 49.72881 | 56.60349 | 36091 ft | 464 kts | 216° |
| 2026-04-16 08:16 | 49.67589 | 56.54684 | 36092 ft | 463 kts | 216° |
| 2026-04-16 08:17 | 49.62267 | 56.49090 | 36095 ft | 463 kts | 216° |
| 2026-04-16 08:17 | 49.56979 | 56.43557 | 36082 ft | 463 kts | 216° |
| 2026-04-16 08:19 | 49.35752 | 56.21367 | 36046 ft | 464 kts | 215° |
| 2026-04-16 08:20 | 49.33074 | 56.18564 | 36366 ft | 462 kts | 215° |
| 2026-04-16 08:20 | 49.30422 | 56.15786 | 36093 ft | 465 kts | 215° |
| 2026-04-16 08:20 | 49.25156 | 56.10265 | 36096 ft | 460 kts | 215° |
| 2026-04-16 08:21 | 49.19891 | 56.04746 | 36088 ft | 462 kts | 215° |
| 2026-04-16 08:21 | 49.14601 | 55.99204 | 36086 ft | 462 kts | 215° |
| 2026-04-16 08:22 | 49.09312 | 55.93663 | 36089 ft | 462 kts | 216° |
| 2026-04-16 08:22 | 49.04049 | 55.88142 | 36088 ft | 463 kts | 216° |
| 2026-04-16 08:23 | 48.98782 | 55.82607 | 36075 ft | 461 kts | 216° |
| 2026-04-16 08:23 | 48.93519 | 55.77078 | 36074 ft | 462 kts | 216° |
| 2026-04-16 08:24 | 48.88220 | 55.71507 | 36071 ft | 463 kts | 216° |
| 2026-04-16 08:24 | 48.82959 | 55.66011 | 36064 ft | 462 kts | 215° |
| 2026-04-16 08:25 | 48.77633 | 55.60592 | 36062 ft | 461 kts | 215° |
| 2026-04-16 08:25 | 48.72329 | 55.55196 | 36074 ft | 461 kts | 215° |
| 2026-04-16 08:26 | 48.67016 | 55.49790 | 36062 ft | 460 kts | 215° |
| 2026-04-16 08:26 | 48.61694 | 55.44379 | 36065 ft | 466 kts | 216° |
| 2026-04-16 08:27 | 48.56332 | 55.38933 | 36055 ft | 467 kts | 216° |
| 2026-04-16 08:27 | 48.50939 | 55.33528 | 36064 ft | 466 kts | 214° |
| 2026-04-16 08:28 | 48.45580 | 55.28186 | 36052 ft | 465 kts | 214° |
| 2026-04-16 08:28 | 48.40194 | 55.22829 | 35849 ft | 463 kts | 214° |
| 2026-04-16 08:29 | 48.34832 | 55.17498 | 36019 ft | 465 kts | 214° |
| 2026-04-16 08:29 | 48.29413 | 55.12110 | 36048 ft | 467 kts | 214° |
| 2026-04-16 08:30 | 48.24038 | 55.06761 | 36058 ft | 467 kts | 215° |
| 2026-04-16 08:30 | 48.18645 | 55.01391 | 36060 ft | 466 kts | 215° |
| 2026-04-16 08:31 | 48.13266 | 54.96026 | 36072 ft | 464 kts | 215° |
| 2026-04-16 08:31 | 48.07923 | 54.90700 | 36060 ft | 464 kts | 215° |
| 2026-04-16 08:32 | 48.02581 | 54.85375 | 36061 ft | 464 kts | 215° |
| 2026-04-16 08:32 | 47.97218 | 54.80023 | 36066 ft | 465 kts | 215° |
| 2026-04-16 08:33 | 47.91843 | 54.74664 | 36055 ft | 465 kts | 215° |
| 2026-04-16 08:33 | 47.86446 | 54.69416 | 36057 ft | 464 kts | 214° |
| 2026-04-16 08:34 | 47.81067 | 54.64213 | 36065 ft | 464 kts | 214° |
| 2026-04-16 08:34 | 47.75652 | 54.58976 | 36055 ft | 464 kts | 215° |
| 2026-04-16 08:35 | 47.70270 | 54.53767 | 36054 ft | 463 kts | 215° |
| 2026-04-16 08:35 | 47.64891 | 54.48558 | 36051 ft | 464 kts | 215° |
| 2026-04-16 08:36 | 47.59508 | 54.43341 | 36316 ft | 465 kts | 215° |
| 2026-04-16 08:36 | 47.56823 | 54.40743 | 36014 ft | 465 kts | 215° |
| 2026-04-16 08:36 | 47.54143 | 54.38148 | 36049 ft | 460 kts | 215° |
| 2026-04-16 08:37 | 47.48779 | 54.32952 | 36047 ft | 462 kts | 214° |
| 2026-04-16 08:37 | 47.43440 | 54.27770 | 36047 ft | 462 kts | 214° |
| 2026-04-16 08:38 | 47.38065 | 54.22560 | 36042 ft | 463 kts | 214° |
| 2026-04-16 08:38 | 47.32687 | 54.17420 | 36047 ft | 463 kts | 214° |
| 2026-04-16 08:39 | 47.27268 | 54.12293 | 36039 ft | 463 kts | 214° |
| 2026-04-16 08:39 | 47.21857 | 54.07174 | 36041 ft | 463 kts | 214° |
| 2026-04-16 08:40 | 47.16466 | 54.02071 | 36037 ft | 464 kts | 214° |
| 2026-04-16 08:40 | 47.11055 | 53.96949 | 36036 ft | 464 kts | 214° |
| 2026-04-16 08:41 | 47.05618 | 53.91805 | 36031 ft | 464 kts | 214° |
| 2026-04-16 08:41 | 47.00197 | 53.86674 | 36027 ft | 464 kts | 214° |
| 2026-04-16 08:42 | 46.94922 | 53.81371 | 36010 ft | 462 kts | 223° |
| 2026-04-16 08:42 | 46.90158 | 53.75155 | 36023 ft | 461 kts | 224° |
| 2026-04-16 08:43 | 46.85397 | 53.68901 | 36029 ft | 460 kts | 224° |
| 2026-04-16 08:43 | 46.83054 | 53.65823 | 35790 ft | 458 kts | 224° |
| 2026-04-16 08:43 | 46.80686 | 53.62719 | 36019 ft | 459 kts | 224° |
| 2026-04-16 08:44 | 46.75922 | 53.56480 | 36018 ft | 462 kts | 224° |
| 2026-04-16 08:44 | 46.71140 | 53.50234 | 36033 ft | 460 kts | 224° |
| 2026-04-16 08:45 | 46.66408 | 53.44070 | 36030 ft | 459 kts | 224° |
| 2026-04-16 08:45 | 46.61666 | 53.37909 | 36027 ft | 458 kts | 225° |
| 2026-04-16 08:46 | 46.56903 | 53.31737 | 36035 ft | 458 kts | 224° |
| 2026-04-16 08:46 | 46.52161 | 53.25603 | 36037 ft | 458 kts | 224° |
| 2026-04-16 08:47 | 46.47416 | 53.19484 | 36041 ft | 457 kts | 224° |
| 2026-04-16 08:47 | 46.42686 | 53.13393 | 36041 ft | 457 kts | 224° |
| 2026-04-16 08:48 | 46.37957 | 53.07317 | 36032 ft | 456 kts | 224° |
| 2026-04-16 08:48 | 46.33209 | 53.01242 | 36032 ft | 456 kts | 224° |
| 2026-04-16 08:49 | 46.28492 | 52.95211 | 36036 ft | 455 kts | 224° |
| 2026-04-16 08:49 | 46.23772 | 52.89188 | 36036 ft | 454 kts | 224° |
| 2026-04-16 08:50 | 46.19046 | 52.83176 | 36042 ft | 455 kts | 224° |
| 2026-04-16 08:50 | 46.14283 | 52.77128 | 36045 ft | 455 kts | 224° |
| 2026-04-16 08:51 | 46.09566 | 52.71152 | 36045 ft | 455 kts | 224° |
| 2026-04-16 08:51 | 46.04819 | 52.65151 | 36039 ft | 455 kts | 224° |
| 2026-04-16 08:52 | 46.00083 | 52.59187 | 36042 ft | 454 kts | 224° |
| 2026-04-16 08:52 | 45.95330 | 52.53206 | 36051 ft | 454 kts | 224° |
| 2026-04-16 08:53 | 45.90605 | 52.47273 | 36053 ft | 455 kts | 224° |
| 2026-04-16 08:53 | 45.85830 | 52.41291 | 36050 ft | 455 kts | 224° |
| 2026-04-16 08:54 | 45.81095 | 52.35373 | 36054 ft | 455 kts | 224° |
| 2026-04-16 08:54 | 45.76318 | 52.29416 | 36059 ft | 456 kts | 223° |
| 2026-04-16 08:55 | 45.71550 | 52.23481 | 36061 ft | 456 kts | 223° |
| 2026-04-16 08:55 | 45.66794 | 52.17573 | 36064 ft | 456 kts | 223° |
| 2026-04-16 08:56 | 45.62023 | 52.11661 | 36062 ft | 456 kts | 223° |
| 2026-04-16 08:56 | 45.57244 | 52.05754 | 36069 ft | 455 kts | 223° |
| 2026-04-16 08:57 | 45.52467 | 51.99869 | 36077 ft | 455 kts | 223° |
| 2026-04-16 08:57 | 45.47675 | 51.93969 | 36073 ft | 454 kts | 223° |
| 2026-04-16 08:58 | 45.42925 | 51.88139 | 36080 ft | 455 kts | 223° |
| 2026-04-16 08:58 | 45.38146 | 51.82287 | 36077 ft | 455 kts | 223° |
| 2026-04-16 08:59 | 45.33352 | 51.76425 | 36079 ft | 453 kts | 223° |
| 2026-04-16 08:59 | 45.28596 | 51.70629 | 36083 ft | 453 kts | 223° |
| 2026-04-16 09:00 | 45.23803 | 51.64807 | 36080 ft | 453 kts | 223° |
| 2026-04-16 09:00 | 45.19025 | 51.59007 | 36083 ft | 452 kts | 223° |
| 2026-04-16 09:01 | 45.11895 | 51.50378 | 36081 ft | 451 kts | 223° |
| 2026-04-16 09:02 | 45.07128 | 51.44628 | 36083 ft | 451 kts | 223° |
| 2026-04-16 09:02 | 45.02395 | 51.38934 | 36089 ft | 450 kts | 223° |
| 2026-04-16 09:03 | 44.97633 | 51.33217 | 36098 ft | 448 kts | 222° |
| 2026-04-16 09:03 | 44.92902 | 51.27549 | 36106 ft | 447 kts | 222° |
| 2026-04-16 09:04 | 44.88184 | 51.21907 | 36106 ft | 446 kts | 222° |
| 2026-04-16 09:04 | 44.83450 | 51.16262 | 36108 ft | 446 kts | 222° |
| 2026-04-16 09:05 | 44.78725 | 51.10638 | 36104 ft | 446 kts | 222° |
| 2026-04-16 09:05 | 44.73982 | 51.05003 | 36112 ft | 445 kts | 222° |
| 2026-04-16 09:06 | 44.69267 | 50.99414 | 36108 ft | 445 kts | 222° |
| 2026-04-16 09:06 | 44.64554 | 50.93837 | 36110 ft | 445 kts | 222° |
| 2026-04-16 09:07 | 44.59838 | 50.88272 | 36102 ft | 446 kts | 222° |
| 2026-04-16 09:07 | 44.55099 | 50.82692 | 36099 ft | 447 kts | 222° |
| 2026-04-16 09:08 | 44.50345 | 50.77096 | 36096 ft | 447 kts | 222° |
| 2026-04-16 09:08 | 44.45596 | 50.71521 | 36100 ft | 447 kts | 222° |
| 2026-04-16 09:09 | 44.40859 | 50.65971 | 36102 ft | 446 kts | 222° |
| 2026-04-16 09:09 | 44.36100 | 50.60409 | 36107 ft | 446 kts | 222° |
| 2026-04-16 09:10 | 44.31360 | 50.54887 | 36111 ft | 446 kts | 222° |
| 2026-04-16 09:10 | 44.26598 | 50.49350 | 36116 ft | 445 kts | 222° |
| 2026-04-16 09:11 | 44.21872 | 50.43864 | 36122 ft | 445 kts | 222° |
| 2026-04-16 09:11 | 44.17105 | 50.38344 | 36121 ft | 445 kts | 222° |
| 2026-04-16 09:12 | 44.12369 | 50.32858 | 36124 ft | 445 kts | 221° |
| 2026-04-16 09:12 | 44.07612 | 50.27360 | 36130 ft | 445 kts | 221° |
| 2026-04-16 09:13 | 44.02855 | 50.21883 | 36128 ft | 445 kts | 221° |
| 2026-04-16 09:13 | 43.98109 | 50.16427 | 36131 ft | 445 kts | 221° |
| 2026-04-16 09:14 | 43.93359 | 50.10981 | 36138 ft | 444 kts | 221° |
| 2026-04-16 09:14 | 43.88604 | 50.05539 | 36132 ft | 444 kts | 221° |
| 2026-04-16 09:15 | 43.83868 | 50.00116 | 36137 ft | 444 kts | 221° |
| 2026-04-16 09:15 | 43.79100 | 49.94670 | 36140 ft | 445 kts | 221° |
| 2026-04-16 09:16 | 43.74335 | 49.89246 | 36144 ft | 445 kts | 221° |
| 2026-04-16 09:16 | 43.69574 | 49.83836 | 36138 ft | 445 kts | 221° |
| 2026-04-16 09:17 | 43.64791 | 49.78407 | 36145 ft | 445 kts | 221° |
| 2026-04-16 09:17 | 43.60033 | 49.73018 | 36146 ft | 444 kts | 221° |
| 2026-04-16 09:18 | 43.55255 | 49.67616 | 36148 ft | 444 kts | 221° |
| 2026-04-16 09:18 | 43.50503 | 49.62246 | 36150 ft | 444 kts | 221° |
| 2026-04-16 09:19 | 43.45832 | 49.56743 | 36141 ft | 443 kts | 230° |
| 2026-04-16 09:19 | 43.44071 | 49.53301 | 36148 ft | 440 kts | 243° |
| 2026-04-16 09:19 | 43.42703 | 49.49557 | 36181 ft | 439 kts | 246° |
| 2026-04-16 09:20 | 43.40839 | 49.41674 | 36157 ft | 436 kts | 263° |
| 2026-04-16 09:20 | 43.40425 | 49.33405 | 36168 ft | 435 kts | 269° |
| 2026-04-16 09:21 | 43.40334 | 49.25164 | 36169 ft | 434 kts | 271° |
| 2026-04-16 09:21 | 43.40385 | 49.16905 | 36166 ft | 434 kts | 272° |
| 2026-04-16 09:22 | 43.40485 | 49.08604 | 36167 ft | 434 kts | 272° |
| 2026-04-16 09:22 | 43.40605 | 49.00374 | 36172 ft | 434 kts | 272° |
| 2026-04-16 09:23 | 43.40736 | 48.92082 | 36165 ft | 435 kts | 272° |
| 2026-04-16 09:23 | 43.40871 | 48.83801 | 36166 ft | 435 kts | 273° |
| 2026-04-16 09:24 | 43.41015 | 48.75509 | 36167 ft | 435 kts | 273° |
| 2026-04-16 09:24 | 43.41163 | 48.67265 | 36168 ft | 435 kts | 273° |
| 2026-04-16 09:25 | 43.41317 | 48.58942 | 36173 ft | 435 kts | 273° |
| 2026-04-16 09:25 | 43.41477 | 48.50669 | 36174 ft | 435 kts | 273° |
| 2026-04-16 09:26 | 43.41644 | 48.42379 | 36173 ft | 435 kts | 273° |
| 2026-04-16 09:26 | 43.41817 | 48.34058 | 36172 ft | 436 kts | 272° |
| 2026-04-16 09:27 | 43.41996 | 48.25742 | 36173 ft | 436 kts | 272° |
| 2026-04-16 09:27 | 43.42178 | 48.17420 | 36173 ft | 436 kts | 273° |
| 2026-04-16 09:28 | 43.42370 | 48.09126 | 36175 ft | 436 kts | 273° |
| 2026-04-16 09:28 | 43.42564 | 48.00864 | 36176 ft | 435 kts | 273° |
| 2026-04-16 09:29 | 43.42770 | 47.92569 | 36178 ft | 436 kts | 273° |
| 2026-04-16 09:29 | 43.42979 | 47.84257 | 36173 ft | 436 kts | 273° |
| 2026-04-16 09:30 | 43.43190 | 47.75935 | 36167 ft | 436 kts | 273° |
| 2026-04-16 09:30 | 43.43409 | 47.67663 | 36172 ft | 436 kts | 273° |
| 2026-04-16 09:31 | 43.43636 | 47.59343 | 36170 ft | 436 kts | 274° |
| 2026-04-16 09:31 | 43.43871 | 47.51041 | 36168 ft | 436 kts | 274° |
| 2026-04-16 09:32 | 43.44108 | 47.42775 | 36174 ft | 435 kts | 274° |
| 2026-04-16 09:32 | 43.44352 | 47.34502 | 36160 ft | 435 kts | 273° |
| 2026-04-16 09:33 | 43.44603 | 47.26158 | 36156 ft | 435 kts | 273° |
| 2026-04-16 09:33 | 43.44858 | 47.17901 | 36154 ft | 436 kts | 273° |
| 2026-04-16 09:34 | 43.45119 | 47.09603 | 36153 ft | 435 kts | 273° |
| 2026-04-16 09:34 | 43.45388 | 47.01321 | 36156 ft | 435 kts | 273° |
| 2026-04-16 09:35 | 43.45661 | 46.93048 | 36144 ft | 435 kts | 273° |
| 2026-04-16 09:35 | 43.45943 | 46.84752 | 36148 ft | 436 kts | 273° |
| 2026-04-16 09:36 | 43.46224 | 46.76431 | 36152 ft | 434 kts | 274° |
| 2026-04-16 09:36 | 43.46519 | 46.68131 | 36160 ft | 437 kts | 274° |
| 2026-04-16 09:37 | 43.46813 | 46.59880 | 36165 ft | 435 kts | 274° |
| 2026-04-16 09:37 | 43.47120 | 46.51563 | 36161 ft | 435 kts | 274° |
| 2026-04-16 09:38 | 43.47432 | 46.43261 | 36180 ft | 437 kts | 274° |
| 2026-04-16 09:38 | 43.47752 | 46.34929 | 36165 ft | 438 kts | 274° |
| 2026-04-16 09:39 | 43.48068 | 46.26636 | 36182 ft | 434 kts | 274° |
| 2026-04-16 09:39 | 43.48397 | 46.18321 | 36177 ft | 434 kts | 274° |
| 2026-04-16 09:40 | 43.48736 | 46.10055 | 36187 ft | 438 kts | 274° |
| 2026-04-16 09:40 | 43.49131 | 46.01694 | 36182 ft | 438 kts | 277° |
| 2026-04-16 09:41 | 43.49789 | 45.93434 | 36200 ft | 437 kts | 277° |
| 2026-04-16 09:41 | 43.50394 | 45.85151 | 36191 ft | 435 kts | 276° |
| 2026-04-16 09:42 | 43.50971 | 45.76934 | 36204 ft | 429 kts | 276° |
| 2026-04-16 09:42 | 43.51550 | 45.68830 | 36194 ft | 427 kts | 276° |
| 2026-04-16 09:43 | 43.52111 | 45.60677 | 36199 ft | 427 kts | 276° |
| 2026-04-16 09:43 | 43.52683 | 45.52543 | 36189 ft | 431 kts | 276° |
| 2026-04-16 09:44 | 43.53257 | 45.44302 | 36191 ft | 434 kts | 277° |
| 2026-04-16 09:44 | 43.53867 | 45.36003 | 36191 ft | 434 kts | 276° |
| 2026-04-16 09:45 | 43.54487 | 45.27866 | 35397 ft | 431 kts | 275° |
| 2026-04-16 09:45 | 43.54797 | 45.23743 | 34609 ft | 432 kts | 274° |
| 2026-04-16 09:45 | 43.55092 | 45.19679 | 33812 ft | 430 kts | 274° |
| 2026-04-16 09:45 | 43.55377 | 45.15609 | 32789 ft | 432 kts | 274° |
| 2026-04-16 09:46 | 43.55677 | 45.11507 | 31781 ft | 432 kts | 275° |
| 2026-04-16 09:46 | 43.55983 | 45.07420 | 30629 ft | 435 kts | 275° |
| 2026-04-16 09:46 | 43.56294 | 45.03315 | 29352 ft | 437 kts | 275° |
| 2026-04-16 09:46 | 43.56604 | 44.99148 | 27971 ft | 439 kts | 275° |
| 2026-04-16 09:47 | 43.56910 | 44.95007 | 26400 ft | 445 kts | 275° |
| 2026-04-16 09:47 | 43.57226 | 44.90783 | 24903 ft | 447 kts | 275° |
| 2026-04-16 09:47 | 43.57545 | 44.86579 | 23620 ft | 443 kts | 276° |
| 2026-04-16 09:47 | 43.57864 | 44.82435 | 22466 ft | 437 kts | 276° |
| 2026-04-16 09:48 | 43.58183 | 44.78329 | 21643 ft | 423 kts | 276° |
| 2026-04-16 09:48 | 43.58487 | 44.74449 | 21624 ft | 394 kts | 276° |
| 2026-04-16 09:48 | 43.58775 | 44.70768 | 21047 ft | 384 kts | 276° |
| 2026-04-16 09:48 | 43.59057 | 44.67173 | 20270 ft | 380 kts | 276° |
| 2026-04-16 09:49 | 43.59336 | 44.63580 | 19567 ft | 374 kts | 277° |
| 2026-04-16 09:49 | 43.59613 | 44.60069 | 18844 ft | 370 kts | 277° |
| 2026-04-16 09:49 | 43.59891 | 44.56572 | 18192 ft | 363 kts | 277° |
| 2026-04-16 09:49 | 43.60171 | 44.53172 | 17553 ft | 357 kts | 277° |
| 2026-04-16 09:50 | 43.60446 | 44.49822 | 16919 ft | 351 kts | 277° |
| 2026-04-16 09:50 | 43.60712 | 44.46520 | 16232 ft | 347 kts | 277° |
| 2026-04-16 09:50 | 43.60970 | 44.43248 | 15505 ft | 345 kts | 277° |
| 2026-04-16 09:50 | 43.61227 | 44.39981 | 14812 ft | 342 kts | 277° |
| 2026-04-16 09:51 | 43.61487 | 44.36737 | 14165 ft | 338 kts | 277° |
| 2026-04-16 09:51 | 43.61744 | 44.33534 | 13538 ft | 333 kts | 277° |
| 2026-04-16 09:51 | 43.62000 | 44.30421 | 12917 ft | 329 kts | 277° |
| 2026-04-16 09:51 | 43.62262 | 44.27293 | 12279 ft | 325 kts | 277° |
| 2026-04-16 09:52 | 43.62520 | 44.24227 | 11643 ft | 322 kts | 277° |
| 2026-04-16 09:52 | 43.62775 | 44.21212 | 11062 ft | 318 kts | 276° |
| 2026-04-16 09:52 | 43.63029 | 44.18172 | 10874 ft | 322 kts | 276° |
| 2026-04-16 09:52 | 43.63380 | 44.15114 | 10654 ft | 319 kts | 286° |
| 2026-04-16 09:53 | 43.64375 | 44.12408 | 10391 ft | 317 kts | 305° |
| 2026-04-16 09:53 | 43.65735 | 44.10080 | 10239 ft | 314 kts | 309° |
| 2026-04-16 09:53 | 43.67164 | 44.07772 | 10190 ft | 312 kts | 310° |
| 2026-04-16 09:53 | 43.68590 | 44.05568 | 10165 ft | 301 kts | 311° |
| 2026-04-16 09:54 | 43.69942 | 44.03505 | 10140 ft | 281 kts | 311° |
| 2026-04-16 09:54 | 43.71213 | 44.01567 | 10149 ft | 264 kts | 311° |
| 2026-04-16 09:54 | 43.72413 | 43.99739 | 10143 ft | 250 kts | 311° |
| 2026-04-16 09:54 | 43.73564 | 43.97987 | 10140 ft | 242 kts | 311° |
| 2026-04-16 09:55 | 43.74688 | 43.96283 | 10171 ft | 242 kts | 311° |
| 2026-04-16 09:55 | 43.75833 | 43.94549 | 10170 ft | 245 kts | 311° |
| 2026-04-16 09:55 | 43.76991 | 43.92804 | 10187 ft | 246 kts | 312° |
| 2026-04-16 09:55 | 43.78149 | 43.91060 | 10169 ft | 246 kts | 311° |
| 2026-04-16 09:56 | 43.79299 | 43.89328 | 10183 ft | 245 kts | 311° |
| 2026-04-16 09:56 | 43.80456 | 43.87583 | 10175 ft | 245 kts | 311° |
| 2026-04-16 09:56 | 43.81607 | 43.85845 | 10172 ft | 246 kts | 311° |
| 2026-04-16 09:56 | 43.82749 | 43.84120 | 10186 ft | 246 kts | 311° |
| 2026-04-16 09:57 | 43.83908 | 43.82368 | 10157 ft | 241 kts | 311° |
| 2026-04-16 09:57 | 43.85023 | 43.80673 | 9856 ft | 242 kts | 310° |
| 2026-04-16 09:57 | 43.86065 | 43.78841 | 9522 ft | 242 kts | 306° |
| 2026-04-16 09:57 | 43.87083 | 43.76983 | 9264 ft | 241 kts | 306° |
| 2026-04-16 09:58 | 43.88094 | 43.75140 | 9013 ft | 239 kts | 307° |
| 2026-04-16 09:58 | 43.89101 | 43.73312 | 8759 ft | 238 kts | 307° |
| 2026-04-16 09:58 | 43.90104 | 43.71500 | 8480 ft | 237 kts | 307° |
| 2026-04-16 09:58 | 43.91107 | 43.69690 | 8192 ft | 237 kts | 307° |
| 2026-04-16 09:59 | 43.92098 | 43.67905 | 7929 ft | 236 kts | 307° |
| 2026-04-16 09:59 | 43.93100 | 43.66101 | 7668 ft | 235 kts | 307° |
| 2026-04-16 09:59 | 43.94101 | 43.64300 | 7416 ft | 234 kts | 307° |
| 2026-04-16 09:59 | 43.95083 | 43.62535 | 7170 ft | 233 kts | 307° |
| 2026-04-16 10:00 | 43.96069 | 43.60759 | 6909 ft | 232 kts | 307° |
| 2026-04-16 10:00 | 43.97053 | 43.58988 | 6654 ft | 231 kts | 307° |
| 2026-04-16 10:00 | 43.98028 | 43.57230 | 6406 ft | 230 kts | 308° |
| 2026-04-16 10:01 | 43.99973 | 43.53716 | 5905 ft | 228 kts | 308° |
| 2026-04-16 10:01 | 44.00927 | 43.51999 | 5663 ft | 227 kts | 308° |
| 2026-04-16 10:01 | 44.01892 | 43.50250 | 5360 ft | 228 kts | 308° |
| 2026-04-16 10:01 | 44.02851 | 43.48518 | 5008 ft | 224 kts | 308° |
| 2026-04-16 10:02 | 44.03765 | 43.46862 | 4354 ft | 215 kts | 308° |
| 2026-04-16 10:02 | 44.04649 | 43.45259 | 3961 ft | 197 kts | 308° |
| 2026-04-16 10:02 | 44.05440 | 43.43827 | 4021 ft | 189 kts | 308° |
| 2026-04-16 10:02 | 44.06240 | 43.42383 | 4021 ft | 192 kts | 308° |
| 2026-04-16 10:03 | 44.07055 | 43.40910 | 3992 ft | 190 kts | 309° |
| 2026-04-16 10:03 | 44.07851 | 43.39467 | 3998 ft | 191 kts | 309° |
| 2026-04-16 10:03 | 44.08661 | 43.37996 | 4035 ft | 188 kts | 309° |
| 2026-04-16 10:03 | 44.09458 | 43.36548 | 4070 ft | 192 kts | 309° |
| 2026-04-16 10:04 | 44.10273 | 43.35068 | 3994 ft | 188 kts | 309° |
| 2026-04-16 10:04 | 44.11056 | 43.33644 | 3990 ft | 183 kts | 308° |
| 2026-04-16 10:04 | 44.11760 | 43.32188 | 3995 ft | 181 kts | 303° |
| 2026-04-16 10:04 | 44.12435 | 43.30724 | 4001 ft | 181 kts | 303° |
| 2026-04-16 10:05 | 44.13112 | 43.29248 | 3994 ft | 176 kts | 303° |
| 2026-04-16 10:05 | 44.13719 | 43.27924 | 3925 ft | 155 kts | 303° |
| 2026-04-16 10:05 | 44.14283 | 43.26694 | 3695 ft | 150 kts | 304° |
| 2026-04-16 10:05 | 44.14838 | 43.25485 | 3508 ft | 148 kts | 304° |
| 2026-04-16 10:06 | 44.15369 | 43.24320 | 3304 ft | 135 kts | 304° |
| 2026-04-16 10:06 | 44.15857 | 43.23248 | 3123 ft | 126 kts | 304° |
| 2026-04-16 10:06 | 44.16321 | 43.22232 | 2973 ft | 124 kts | 304° |
| 2026-04-16 10:06 | 44.16785 | 43.21220 | 2835 ft | 124 kts | 303° |
| 2026-04-16 10:07 | 44.17250 | 43.20204 | 2687 ft | 124 kts | 303° |
| 2026-04-16 10:07 | 44.17712 | 43.19197 | 2526 ft | 123 kts | 303° |
| 2026-04-16 10:07 | 44.18172 | 43.18189 | 2368 ft | 122 kts | 302° |
| 2026-04-16 10:07 | 44.18628 | 43.17190 | 2209 ft | 121 kts | 302° |
| 2026-04-16 10:08 | 44.19079 | 43.16202 | 2049 ft | 120 kts | 301° |
| 2026-04-16 10:08 | 44.19524 | 43.15227 | 1889 ft | 119 kts | 300° |
| 2026-04-16 10:08 | 44.19960 | 43.14269 | 1727 ft | 117 kts | 300° |
| 2026-04-16 10:08 | 44.20395 | 43.13310 | 1574 ft | 117 kts | 300° |
| 2026-04-16 10:09 | 44.20837 | 43.12341 | 1413 ft | 118 kts | 301° |
| 2026-04-16 10:09 | 44.21283 | 43.11391 | 1263 ft | 118 kts | 301° |
| 2026-04-16 10:09 | 44.21724 | 43.10412 | 1098 ft | 120 kts | 300° |
| 2026-04-16 10:09 | 44.22121 | 43.09534 | 1056 ft | 76 kts | 301° |
| 2026-04-16 10:10 | 44.22284 | 43.09172 | 1056 ft | 30 kts | 302° |
| 2026-04-16 10:10 | 44.22389 | 43.08934 | 1056 ft | 27 kts | 299° |
| 2026-04-16 10:10 | 44.22419 | 43.08804 | 1056 ft | 1 kts | 161° |
| 2026-04-16 10:10 | 44.22417 | 43.08805 | 1056 ft | 0 kts | 152° |
| 2026-04-16 10:11 | 44.22389 | 43.08825 | 1056 ft | 9 kts | 154° |
| 2026-04-16 10:11 | 44.22300 | 43.08888 | 1056 ft | 17 kts | 152° |
| 2026-04-16 10:11 | 44.22197 | 43.08963 | 1056 ft | 16 kts | 152° |
| 2026-04-16 10:11 | 44.22099 | 43.09033 | 1056 ft | 15 kts | 152° |
| 2026-04-16 10:12 | 44.22011 | 43.09097 | 1056 ft | 13 kts | 152° |
| 2026-04-16 10:12 | 44.21927 | 43.09122 | 1056 ft | 11 kts | 206° |
| 2026-04-16 10:12 | 44.21865 | 43.09066 | 1056 ft | 9 kts | 223° |
| 2026-04-16 10:12 | 44.21862 | 43.08988 | 1056 ft | 7 kts | 301° |
| 2026-04-16 10:13 | 44.21890 | 43.08929 | 1056 ft | 6 kts | 303° |
| 2026-04-16 10:13 | 44.21911 | 43.08879 | 1056 ft | 5 kts | 289° |
| 2026-04-16 10:13 | 44.21904 | 43.08842 | 1056 ft | 3 kts | 224° |
| 2026-04-16 10:13 | 44.21890 | 43.08825 | 1056 ft | 1 kts | 217° |
| 2026-04-16 10:14 | 44.21885 | 43.08821 | 1056 ft | 0 kts | 208° |
| 2026-04-16 10:14 | 44.21876 | 43.08814 | 1056 ft | 4 kts | 213° |
| 2026-04-16 10:14 | 44.21863 | 43.08803 | 1056 ft | 0 kts | 212° |